Estación Meteorológica Peña el Pijo (Robertgarden) [ 12/11/18 09:26:58 CET ]

Fecha Hora Presion(HPa) Temp (°C) Humedad % Rocio (°C) Viento ( m/s) Direccion Lluvia 1Hora(mm) Lluvia 24H(mm) LLuvia Total(mm)
2018-Dec-09 01:01:46 1018.800 2.8 64 -3.3         154.88
2018-Dec-09 02:02:03 1018.500 2.8 62 -3.8         154.88
2018-Dec-09 03:01:59 1018.600 2.5 61 -4.2         154.88
2018-Dec-09 04:03:15 1018.800 1.9 64 -4.2         154.88
2018-Dec-09 05:03:13 1018.800 1.3 66 -4.4         154.88
2018-Dec-09 06:01:46 1018.800 1.3 69 -3.8         154.88
2018-Dec-09 07:01:42 1019.000 1.8 69 -3.3         154.88
2018-Dec-09 08:01:44 1019.400 2.1 70 -2.8         154.88
2018-Dec-09 09:01:38 1019.500 3.2 71 -1.5         154.88
2018-Dec-09 10:01:55 1019.500 9.2 66 3.1         154.88
2018-Dec-09 11:01:36 1019.500 15.9 50 5.5         154.88
2018-Dec-09 12:01:28 1018.600 20.3 41 6.6         154.88
2018-Dec-09 13:01:46 1018.000 22.2 34 5.5         154.88
2018-Dec-09 14:01:42 1017.500 23.3 30 4.8         154.88
2018-Dec-09 15:01:53 1017.100 23.3 30 4.8         154.88
2018-Dec-09 16:01:51 1017.400 21.8 29 2.9         154.88
2018-Dec-09 17:01:12 1017.500 18.0 35 1.8         154.88
2018-Dec-09 18:02:25 1018.000 12.6 45 0.9         154.88
2018-Dec-09 19:01:39 1018.800 8.9 56 0.6         154.88
2018-Dec-09 20:01:51 1019.300 7.2 61 0.2         154.88
2018-Dec-09 21:01:38 1019.400 7.3 64 0.9         154.88
2018-Dec-09 22:01:47 1019.600 7.2 65 1.0         154.88
2018-Dec-09 23:01:54 1019.900 6.0 66 0.1         154.88

Temperatura Máxima:23°    Temperatura Mínima:
Presión Máxima:1019.900 Hpa    Presión Mínima:1017.100 Hpa


Volver